Time;durP1;ratioP1;P1;durP2;ratioP2;P2;SDS_P1;SDS_P2;PMS_P1;PMS_P2;Temp;Humidity;BMP_temperature;BMP_pressure;BME280_temperature;BME280_humidity;BME280_pressure;Samples;Min_cycle;Max_cycle;Signal;HPM_P1;HPM_P2
2022/11/14 00:00:10;;;;;;;33.90;23.73;;;;;;;4.57;100.00;95927.00;5073700;28;20153;-61
2022/11/14 00:02:37;;;;;;;31.38;22.50;;;;;;;4.58;100.00;95924.31;5071019;28;20040;-70
2022/11/14 00:05:02;;;;;;;31.83;21.77;;;;;;;4.63;100.00;95923.19;5068745;28;20071;-70
2022/11/14 00:07:32;;;;;;;30.75;19.67;;;;;;;4.68;100.00;95915.88;5070370;28;20119;-70
2022/11/14 00:09:57;;;;;;;29.98;21.88;;;;;;;4.71;100.00;95919.13;5069057;28;20021;-71
2022/11/14 00:12:22;;;;;;;32.17;22.75;;;;;;;4.68;100.00;95911.53;5070212;28;20059;-71
2022/11/14 00:14:48;;;;;;;27.90;20.85;;;;;;;4.70;100.00;95908.78;5069385;28;20048;-70
2022/11/14 00:17:13;;;;;;;31.95;21.75;;;;;;;4.72;100.00;95899.09;5068576;28;20039;-70
2022/11/14 00:19:38;;;;;;;32.08;21.58;;;;;;;4.75;100.00;95895.47;5071989;28;20525;-61
2022/11/14 00:22:04;;;;;;;32.20;21.05;;;;;;;4.83;100.00;95898.38;5071107;28;20036;-56
2022/11/14 00:24:30;;;;;;;28.13;18.17;;;;;;;4.82;100.00;95900.19;5076755;28;20028;-65
2022/11/14 00:26:55;;;;;;;23.13;16.70;;;;;;;4.87;100.00;95892.06;5069314;28;20028;-65
2022/11/14 00:29:20;;;;;;;23.25;16.52;;;;;;;4.87;100.00;95892.88;5073303;28;20107;-64
2022/11/14 00:31:46;;;;;;;47.20;30.23;;;;;;;4.93;100.00;95885.56;5068220;28;20047;-64
2022/11/14 00:34:11;;;;;;;41.42;26.27;;;;;;;4.91;100.00;95884.84;5069599;28;20036;-64
2022/11/14 00:36:36;;;;;;;42.20;24.45;;;;;;;4.88;100.00;95880.69;5071181;28;20041;-64
2022/11/14 00:39:02;;;;;;;43.65;28.35;;;;;;;4.86;100.00;95878.16;5069175;28;20039;-49
2022/11/14 00:41:28;;;;;;;40.55;24.27;;;;;;;4.85;100.00;95880.84;5043539;28;20067;-58
2022/11/14 00:43:53;;;;;;;29.77;20.70;;;;;;;4.82;100.00;95876.69;5069140;28;20040;-60
2022/11/14 00:46:19;;;;;;;29.58;21.30;;;;;;;4.87;100.00;95874.59;5070121;28;20036;-61
2022/11/14 00:48:44;;;;;;;31.65;21.38;;;;;;;4.86;100.00;95872.09;5067594;28;20063;-60
2022/11/14 00:51:10;;;;;;;32.40;21.25;;;;;;;4.86;100.00;95878.16;5065621;28;20043;-61
2022/11/14 00:53:35;;;;;;;32.13;20.67;;;;;;;4.87;100.00;95872.00;5061041;28;20115;-61
2022/11/14 00:56:01;;;;;;;33.67;22.25;;;;;;;4.84;100.00;95869.59;5055684;28;20035;-61
2022/11/14 00:58:26;;;;;;;38.08;22.30;;;;;;;4.86;100.00;95875.53;5038603;28;20028;-60
2022/11/14 01:00:51;;;;;;;40.25;23.25;;;;;;;4.80;100.00;95873.34;5049106;28;20032;-61
2022/11/14 01:03:17;;;;;;;38.78;27.30;;;;;;;4.81;100.00;95868.97;5046791;28;20059;-60
2022/11/14 01:05:44;;;;;;;37.97;26.27;;;;;;;4.84;100.00;95869.59;5041629;28;20040;-60
2022/11/14 01:08:10;;;;;;;48.92;32.00;;;;;;;4.87;100.00;95872.00;5055688;28;20085;-61
2022/11/14 01:10:41;;;;;;;47.45;31.08;;;;;;;4.91;100.00;95871.78;5043206;28;20079;-61
2022/11/14 01:13:07;;;;;;;32.50;23.63;;;;;;;4.93;100.00;95877.75;5045324;28;20028;-61
2022/11/14 01:15:32;;;;;;;23.20;16.60;;;;;;;5.02;100.00;95862.31;5070866;28;20032;-61
2022/11/14 01:17:57;;;;;;;20.10;15.48;;;;;;;5.03;100.00;95868.38;5062132;28;20047;-52
2022/11/14 01:20:23;;;;;;;16.67;13.30;;;;;;;5.04;100.00;95863.97;5053848;28;20037;-64
2022/11/14 01:22:48;;;;;;;14.75;11.52;;;;;;;5.05;100.00;95874.31;5055057;28;20423;-52
2022/11/14 01:25:14;;;;;;;15.55;13.38;;;;;;;5.06;100.00;95876.00;5054529;28;20040;-50
2022/11/14 01:27:39;;;;;;;17.10;11.90;;;;;;;5.07;100.00;95866.38;5059135;28;20682;-52
2022/11/14 01:30:05;;;;;;;29.23;21.40;;;;;;;5.06;100.00;95865.56;5053098;28;20028;-50
2022/11/14 01:32:30;;;;;;;29.50;19.55;;;;;;;5.09;100.00;95865.34;5057345;28;20043;-54
2022/11/14 01:34:56;;;;;;;19.77;14.60;;;;;;;5.12;100.00;95861.69;5064353;28;20502;-53
2022/11/14 01:37:21;;;;;;;19.33;14.02;;;;;;;5.18;100.00;95858.66;5063333;28;20115;-61
2022/11/14 01:39:47;;;;;;;21.10;15.45;;;;;;;5.17;100.00;95857.00;5060727;28;20075;-50
2022/11/14 01:42:12;;;;;;;17.73;13.25;;;;;;;5.15;100.00;95856.25;5057998;28;20069;-53
2022/11/14 01:44:42;;;;;;;17.95;13.75;;;;;;;5.12;100.00;95854.69;5053881;28;20036;-54
2022/11/14 01:47:08;;;;;;;14.98;12.35;;;;;;;5.10;100.00;95848.75;5061503;28;20560;-50
2022/11/14 01:49:38;;;;;;;14.45;12.02;;;;;;;5.11;100.00;95847.78;5062003;28;20109;-53
2022/11/14 01:52:09;;;;;;;17.67;13.40;;;;;;;5.10;100.00;95848.75;5062126;28;20087;-54
2022/11/14 01:54:42;;;;;;;13.57;11.45;;;;;;;5.11;100.00;95846.97;5070344;28;20043;-51
2022/11/14 01:57:10;;;;;;;16.38;12.80;;;;;;;5.10;100.00;95840.91;5075854;28;20497;-61
2022/11/14 01:59:41;;;;;;;15.90;12.77;;;;;;;5.08;100.00;95845.41;5073689;28;20395;-65
2022/11/14 02:02:15;;;;;;;20.83;14.60;;;;;;;5.13;100.00;95847.72;5067811;28;20093;-52
2022/11/14 02:04:47;;;;;;;21.30;15.32;;;;;;;5.13;100.00;95832.03;5074371;28;20075;-51
2022/11/14 02:07:13;;;;;;;17.50;14.43;;;;;;;5.13;100.00;95832.03;5068801;28;20060;-54
2022/11/14 02:09:44;;;;;;;18.30;13.93;;;;;;;5.13;100.00;95840.69;5074240;28;20068;-50
2022/11/14 02:12:13;;;;;;;18.70;14.13;;;;;;;5.11;100.00;95824.31;5068629;28;20044;-51
2022/11/14 02:14:41;;;;;;;19.27;14.18;;;;;;;5.10;100.00;95830.47;5072311;28;20036;-53
2022/11/14 02:17:06;;;;;;;16.58;12.40;;;;;;;5.09;100.00;95827.97;5051105;28;20059;-65
2022/11/14 02:20:10;;;;;;;14.43;12.30;;;;;;;5.04;100.00;95824.81;5077798;28;20517;-70
2022/11/14 02:22:37;;;;;;;14.30;11.35;;;;;;;5.01;100.00;95828.50;5067814;28;20039;-71
2022/11/14 02:25:03;;;;;;;18.90;12.63;;;;;;;5.06;100.00;95829.00;5070851;28;20024;-70
2022/11/14 02:27:30;;;;;;;13.85;12.05;;;;;;;5.18;100.00;95823.88;5079781;28;20493;-70
2022/11/14 02:30:04;;;;;;;16.90;10.82;;;;;;;5.18;100.00;95829.09;5072949;28;20888;-70
2022/11/14 02:32:29;;;;;;;11.77;9.80;;;;;;;5.12;100.00;95833.81;5070721;28;20565;-70
2022/11/14 02:34:55;;;;;;;11.40;9.93;;;;;;;5.25;100.00;95840.81;5073688;28;20116;-60
2022/11/14 02:37:20;;;;;;;15.57;10.65;;;;;;;5.23;100.00;95832.25;5073683;28;20031;-61
2022/11/14 02:39:45;;;;;;;10.95;9.85;;;;;;;5.30;100.00;95836.94;5074427;28;20956;-60
2022/11/14 02:42:11;;;;;;;14.02;9.98;;;;;;;5.24;100.00;95829.53;5069234;28;20107;-60
2022/11/14 02:44:36;;;;;;;12.55;9.32;;;;;;;5.24;100.00;95832.13;5072237;28;20070;-60
2022/11/14 02:47:01;;;;;;;10.70;8.30;;;;;;;5.30;100.00;95829.13;5075460;28;20056;-60
2022/11/14 02:49:27;;;;;;;11.75;8.75;;;;;;;5.33;100.00;95828.06;5072006;28;20060;-61
2022/11/14 02:51:52;;;;;;;11.73;7.95;;;;;;;5.38;100.00;95825.13;5071698;28;20126;-60
2022/11/14 02:54:18;;;;;;;10.50;7.53;;;;;;;5.39;100.00;95813.75;5072681;28;20032;-60
2022/11/14 02:56:43;;;;;;;10.65;7.50;;;;;;;5.41;100.00;95825.72;5070718;28;20039;-57
2022/11/14 02:59:08;;;;;;;10.40;6.85;;;;;;;5.44;100.00;95820.31;5073343;28;20064;-65
2022/11/14 03:01:34;;;;;;;8.43;6.97;;;;;;;5.53;100.00;95821.47;5070565;28;20090;-65
2022/11/14 03:03:59;;;;;;;8.15;7.35;;;;;;;5.52;100.00;95818.94;5054767;28;20097;-65
2022/11/14 03:06:24;;;;;;;9.15;6.60;;;;;;;5.48;100.00;95820.09;5067778;28;20043;-65
2022/11/14 03:08:50;;;;;;;10.88;7.45;;;;;;;5.47;100.00;95815.81;5070477;28;20028;-65
2022/11/14 03:11:15;;;;;;;8.82;7.38;;;;;;;5.47;100.00;95819.25;5073594;28;20124;-65
2022/11/14 03:13:41;;;;;;;9.27;7.93;;;;;;;5.45;100.00;95810.69;5070413;28;20390;-51
2022/11/14 03:16:11;;;;;;;9.98;7.57;;;;;;;5.54;100.00;95815.28;5071245;28;20021;-70
2022/11/14 03:18:37;;;;;;;7.25;6.55;;;;;;;5.54;100.00;95812.69;5072104;28;20036;-65
2022/11/14 03:21:07;;;;;;;9.82;7.25;;;;;;;5.48;100.00;95818.31;5071370;28;20033;-64
2022/11/14 03:23:32;;;;;;;7.65;6.85;;;;;;;5.45;100.00;95802.88;5071354;28;20631;-65
2022/11/14 03:26:02;;;;;;;9.35;7.00;;;;;;;5.44;100.00;95809.88;5070459;28;20115;-65
2022/11/14 03:28:28;;;;;;;9.90;6.82;;;;;;;5.43;100.00;95809.97;5071761;28;20037;-65
2022/11/14 03:30:53;;;;;;;7.78;6.55;;;;;;;5.43;100.00;95804.75;5069984;28;20055;-64
2022/11/14 03:33:19;;;;;;;8.77;6.68;;;;;;;5.44;100.00;95802.03;5068668;28;20041;-51
2022/11/14 03:35:44;;;;;;;8.80;6.15;;;;;;;5.42;100.00;95801.31;5069089;28;20445;-58
2022/11/14 03:38:10;;;;;;;6.93;6.05;;;;;;;5.43;100.00;95797.75;5072345;28;20555;-57
2022/11/14 03:40:39;;;;;;;8.18;6.20;;;;;;;5.47;100.00;95806.19;5070964;28;20044;-58
2022/11/14 03:43:04;;;;;;;7.15;6.10;;;;;;;5.44;100.00;95803.81;5057758;28;20040;-55
2022/11/14 03:45:29;;;;;;;9.82;6.10;;;;;;;5.45;100.00;95801.09;5069123;28;20502;-57
2022/11/14 03:47:55;;;;;;;6.18;5.57;;;;;;;5.44;100.00;95799.44;5072664;28;20032;-56
2022/11/14 03:50:20;;;;;;;7.03;5.80;;;;;;;5.43;100.00;95792.53;5070651;28;20059;-58
2022/11/14 03:52:48;;;;;;;6.43;5.82;;;;;;;5.41;100.00;95799.63;5069554;28;20174;-50
2022/11/14 03:55:13;;;;;;;6.57;5.68;;;;;;;5.42;100.00;95805.69;5068608;28;20040;-61
2022/11/14 03:57:39;;;;;;;10.43;6.00;;;;;;;5.47;100.00;95803.59;5074542;28;20052;-61
2022/11/14 04:00:04;;;;;;;11.23;5.65;;;;;;;5.48;100.00;95801.81;5064486;28;20059;-61
2022/11/14 04:02:30;;;;;;;6.75;6.13;;;;;;;5.47;100.00;95805.38;5067394;28;20395;-61
2022/11/14 04:04:55;;;;;;;8.77;5.85;;;;;;;5.51;100.00;95807.66;5072563;28;20506;-61
2022/11/14 04:07:21;;;;;;;5.97;5.38;;;;;;;5.53;100.00;95808.41;5071347;28;20114;-61
2022/11/14 04:09:46;;;;;;;6.45;5.88;;;;;;;5.50;100.00;95805.97;5069917;28;20043;-61
2022/11/14 04:12:11;;;;;;;6.32;5.72;;;;;;;5.49;100.00;95806.09;5074804;28;20029;-71
2022/11/14 04:14:37;;;;;;;8.02;6.38;;;;;;;5.51;100.00;95809.44;5068967;28;20587;-61
2022/11/14 04:17:02;;;;;;;6.85;6.18;;;;;;;5.52;100.00;95811.09;5069078;28;20024;-61
2022/11/14 04:19:27;;;;;;;7.68;5.38;;;;;;;5.54;100.00;95806.59;5077683;28;20028;-61
2022/11/14 04:21:53;;;;;;;6.72;6.00;;;;;;;5.55;100.00;95811.75;5056009;28;20032;-60
2022/11/14 04:24:18;;;;;;;9.85;5.45;;;;;;;5.57;100.00;95812.47;5051873;28;21855;-60
2022/11/14 04:26:43;;;;;;;10.77;5.95;;;;;;;5.59;100.00;95817.56;5075833;28;20394;-60
2022/11/14 04:29:09;;;;;;;9.23;5.47;;;;;;;5.64;100.00;95815.47;5069857;28;20047;-60
2022/11/14 04:31:34;;;;;;;6.72;5.97;;;;;;;5.64;100.00;95805.03;5072863;28;20032;-61
2022/11/14 04:33:59;;;;;;;14.38;5.88;;;;;;;5.64;100.00;95806.78;5073166;28;20042;-61
2022/11/14 04:36:25;;;;;;;9.52;6.43;;;;;;;5.67;100.00;95810.03;5069129;28;20115;-65
2022/11/14 04:38:50;;;;;;;6.45;5.50;;;;;;;5.67;100.00;95809.19;5072233;28;20033;-65
2022/11/14 04:41:16;;;;;;;8.70;6.00;;;;;;;5.67;100.00;95804.81;5068743;28;20120;-64
2022/11/14 04:43:41;;;;;;;6.05;4.97;;;;;;;5.68;100.00;95803.88;5072064;28;20090;-65
2022/11/14 04:46:06;;;;;;;8.25;6.28;;;;;;;5.73;100.00;95804.38;5067954;28;20617;-64
2022/11/14 04:48:32;;;;;;;16.17;12.32;;;;;;;5.70;100.00;95799.38;5068957;28;20060;-65
2022/11/14 04:50:57;;;;;;;17.45;12.07;;;;;;;5.68;100.00;95798.66;5071308;28;20055;-61
2022/11/14 04:53:23;;;;;;;24.25;17.10;;;;;;;5.68;100.00;95800.41;5073149;28;20021;-61
2022/11/14 04:55:48;;;;;;;28.77;19.10;;;;;;;5.67;100.00;95791.75;5068086;28;20040;-71
2022/11/14 04:58:13;;;;;;;22.52;14.65;;;;;;;5.66;100.00;95794.47;5072543;28;20114;-71
2022/11/14 05:00:39;;;;;;;20.27;14.63;;;;;;;5.64;100.00;95799.81;5066109;28;20048;-71
2022/11/14 05:03:04;;;;;;;20.90;14.15;;;;;;;5.64;100.00;95797.19;5069503;28;20033;-71
2022/11/14 05:05:31;;;;;;;18.33;13.43;;;;;;;5.63;100.00;95798.13;5067398;28;20474;-71
2022/11/14 05:07:56;;;;;;;13.02;11.63;;;;;;;5.62;100.00;95791.22;5068234;28;20094;-70
2022/11/14 05:10:21;;;;;;;17.83;12.98;;;;;;;5.62;100.00;95808.69;5070426;28;20110;-60
2022/11/14 05:12:47;;;;;;;15.05;11.93;;;;;;;5.63;100.00;95797.28;5067514;28;20036;-51
2022/11/14 05:15:12;;;;;;;14.00;11.23;;;;;;;5.65;100.00;95800.63;5065976;28;20040;-60
2022/11/14 05:17:37;;;;;;;13.88;10.10;;;;;;;5.64;100.00;95809.41;5066579;28;20142;-61
2022/11/14 05:20:03;;;;;;;11.23;9.05;;;;;;;5.65;100.00;95804.09;5066728;28;20111;-60
2022/11/14 05:22:28;;;;;;;15.23;9.13;;;;;;;5.64;100.00;95804.19;5062589;28;20028;-60
2022/11/14 05:24:54;;;;;;;12.18;9.70;;;;;;;5.65;100.00;95798.88;5062447;28;20029;-60
2022/11/14 05:27:19;;;;;;;10.73;9.30;;;;;;;5.66;100.00;95792.69;5066716;28;20037;-60
2022/11/14 05:29:44;;;;;;;10.63;8.88;;;;;;;5.69;100.00;95797.69;5066427;28;20032;-61
2022/11/14 05:32:10;;;;;;;12.50;9.27;;;;;;;5.71;100.00;95794.97;5066774;28;20122;-60
2022/11/14 05:34:35;;;;;;;12.40;7.50;;;;;;;5.68;100.00;95798.66;5067625;28;20098;-61
2022/11/14 05:37:02;;;;;;;11.90;9.00;;;;;;;5.68;100.00;95800.41;5063675;28;20137;-60
2022/11/14 05:39:27;;;;;;;8.98;7.57;;;;;;;5.71;100.00;95801.03;5064349;28;20517;-60
2022/11/14 05:41:53;;;;;;;12.15;10.32;;;;;;;5.70;100.00;95807.19;5065597;28;20052;-61
2022/11/14 05:44:18;;;;;;;9.52;8.27;;;;;;;5.67;100.00;95804.81;5064709;28;20051;-61
2022/11/14 05:46:43;;;;;;;8.82;7.93;;;;;;;5.69;100.00;95802.06;5064901;28;20037;-60
2022/11/14 05:49:09;;;;;;;9.57;8.38;;;;;;;5.72;100.00;95807.94;5065809;28;20082;-66
2022/11/14 05:51:34;;;;;;;9.63;8.13;;;;;;;5.73;100.00;95804.38;5026174;28;1103737;-58
2022/11/14 05:54:00;;;;;;;9.60;8.60;;;;;;;5.74;100.00;95805.19;5066561;28;20049;-58
2022/11/14 05:56:25;;;;;;;8.95;7.40;;;;;;;5.71;100.00;95805.41;5068706;28;20028;-59
2022/11/14 05:58:50;;;;;;;7.85;6.97;;;;;;;5.74;100.00;95806.03;5071732;28;20028;-59
2022/11/14 06:01:17;;;;;;;7.28;6.55;;;;;;;5.79;100.00;95807.47;5070438;28;20024;-58
2022/11/14 06:03:45;;;;;;;12.40;6.40;;;;;;;5.80;100.00;95811.75;5069552;28;20028;-59
2022/11/14 06:06:14;;;;;;;7.60;6.25;;;;;;;5.77;100.00;95812.84;5071350;28;20577;-58
2022/11/14 06:08:40;;;;;;;7.22;6.60;;;;;;;5.76;100.00;95808.56;5069782;28;20723;-61
2022/11/14 06:11:14;;;;;;;7.63;6.88;;;;;;;5.76;100.00;95808.56;5068222;28;20417;-61
2022/11/14 06:13:41;;;;;;;6.43;5.82;;;;;;;5.73;100.00;95804.38;5071081;28;20536;-61
2022/11/14 06:16:09;;;;;;;8.57;5.82;;;;;;;5.74;100.00;95805.19;5069990;28;20390;-61
2022/11/14 06:18:35;;;;;;;7.32;5.97;;;;;;;5.74;100.00;95811.25;5070335;28;20036;-61
2022/11/14 06:21:01;;;;;;;9.63;5.65;;;;;;;5.74;100.00;95810.41;5069346;28;20532;-61
2022/11/14 06:23:27;;;;;;;6.55;5.55;;;;;;;5.74;100.00;95813.88;5067275;28;20037;-62
2022/11/14 06:26:00;;;;;;;8.07;5.43;;;;;;;5.73;100.00;95809.59;5070944;28;20033;-61
2022/11/14 06:28:26;;;;;;;8.73;6.43;;;;;;;5.72;100.00;95813.16;5071202;28;20032;-69
2022/11/14 06:30:56;;;;;;;11.75;5.90;;;;;;;5.72;100.00;95814.91;5070493;28;20158;-61
2022/11/14 06:33:21;;;;;;;10.02;5.47;;;;;;;5.73;100.00;95821.81;5068852;28;20498;-61
2022/11/14 06:35:46;;;;;;;6.38;5.38;;;;;;;5.76;100.00;95818.16;5070705;28;20035;-61
2022/11/14 06:38:12;;;;;;;8.25;5.07;;;;;;;5.78;100.00;95817.13;5069864;28;20028;-61
2022/11/14 06:40:37;;;;;;;5.40;4.90;;;;;;;5.79;100.00;95823.16;5070013;28;20123;-61
2022/11/14 06:43:02;;;;;;;6.65;6.03;;;;;;;5.83;100.00;95822.00;5070379;28;20486;-61
2022/11/14 06:45:27;;;;;;;10.63;5.35;;;;;;;5.87;100.00;95826.06;5068872;28;20474;-61
2022/11/14 06:47:57;;;;;;;5.55;5.03;;;;;;;5.90;100.00;95822.38;5070193;28;20040;-61
2022/11/14 06:50:23;;;;;;;11.57;9.25;;;;;;;5.93;100.00;95822.16;5068733;28;20060;-61
2022/11/14 06:52:48;;;;;;;10.10;9.20;;;;;;;5.93;100.00;95820.41;5068253;28;20083;-61
2022/11/14 06:55:13;;;;;;;12.77;9.68;;;;;;;6.15;100.00;95831.97;5069703;28;20047;-62
2022/11/14 06:57:39;;;;;;;7.60;6.38;;;;;;;6.14;100.00;95827.69;5070349;28;20032;-62
2022/11/14 07:00:05;;;;;;;7.93;6.18;;;;;;;6.15;100.00;95826.72;5068721;28;20486;-63
2022/11/14 07:02:30;;;;;;;5.97;5.35;;;;;;;6.27;100.00;95825.00;5069290;28;20040;-62
2022/11/14 07:04:55;;;;;;;6.43;5.63;;;;;;;6.30;100.00;95833.47;5068794;28;20541;-59
2022/11/14 07:07:21;;;;;;;6.18;5.55;;;;;;;6.26;100.00;95834.59;5069028;28;20544;-57
2022/11/14 07:09:46;;;;;;;5.38;4.93;;;;;;;6.26;100.00;95837.22;5069176;28;20554;-55
2022/11/14 07:12:11;;;;;;;6.43;5.30;;;;;;;6.27;100.00;95844.13;5068688;28;20036;-59
2022/11/14 07:14:37;;;;;;;7.25;5.43;;;;;;;6.27;100.00;95844.13;5069271;28;20044;-57
2022/11/14 07:17:02;;;;;;;6.63;5.45;;;;;;;6.32;100.00;95835.13;5068640;28;20115;-60
2022/11/14 07:19:27;;;;;;;7.75;6.72;;;;;;;6.35;100.00;95843.56;5069256;28;20036;-59
2022/11/14 07:21:53;;;;;;;20.95;6.85;;;;;;;6.36;100.00;95839.19;5069844;28;20082;-58
2022/11/14 07:24:18;;;;;;;10.23;7.07;;;;;;;6.39;100.00;95849.41;5067893;28;21031;-52
2022/11/14 07:26:45;;;;;;;19.80;7.18;;;;;;;6.43;100.00;95841.25;5068635;28;20028;-58
2022/11/14 07:29:10;;;;;;;18.30;6.72;;;;;;;6.55;100.00;95839.50;5069749;28;20031;-50
2022/11/14 07:31:36;;;;;;;22.98;8.38;;;;;;;6.55;100.00;95855.19;5069387;28;20036;-52
2022/11/14 07:34:01;;;;;;;13.75;6.03;;;;;;;6.51;100.00;95851.13;5070109;28;20029;-53
2022/11/14 07:36:27;;;;;;;15.13;6.22;;;;;;;6.54;100.00;95847.44;5069959;28;20127;-51
2022/11/14 07:38:53;;;;;;;18.80;6.95;;;;;;;6.57;100.00;95842.00;5068621;28;20040;-51
2022/11/14 07:41:18;;;;;;;7.55;6.22;;;;;;;6.62;100.00;95849.50;5069321;28;20090;-54
2022/11/14 07:43:44;;;;;;;15.90;6.30;;;;;;;6.64;100.00;95848.47;5069218;28;20086;-69
2022/11/14 07:46:12;;;;;;;8.43;6.10;;;;;;;6.69;100.00;95846.31;5069319;28;20037;-58
2022/11/14 07:48:37;;;;;;;6.93;5.35;;;;;;;6.80;100.00;95844.69;5069198;28;20147;-67
2022/11/14 07:51:05;;;;;;;6.78;6.13;;;;;;;6.83;100.00;95852.28;5069559;28;20485;-67
2022/11/14 07:53:31;;;;;;;10.70;6.50;;;;;;;6.91;100.00;95851.72;5068994;28;20450;-66
2022/11/14 07:56:02;;;;;;;7.05;6.35;;;;;;;6.92;100.00;95854.25;5069058;28;20028;-66
2022/11/14 07:58:27;;;;;;;7.90;5.80;;;;;;;6.92;100.00;95856.84;5068968;28;20532;-66
2022/11/14 08:00:53;;;;;;;6.10;5.10;;;;;;;7.01;100.00;95864.00;5069130;28;20033;-66
2022/11/14 08:03:18;;;;;;;6.35;4.35;;;;;;;6.98;100.00;95872.09;5068611;28;20035;-64
2022/11/14 08:05:43;;;;;;;6.13;4.72;;;;;;;7.08;100.00;95863.56;5068084;28;20036;-54
2022/11/14 08:08:09;;;;;;;9.48;4.93;;;;;;;7.06;100.00;95874.13;5068571;28;20064;-69
2022/11/14 08:10:34;;;;;;;5.03;4.63;;;;;;;7.28;100.00;95867.28;5069186;28;20032;-68
2022/11/14 08:13:02;;;;;;;6.82;4.80;;;;;;;7.25;100.00;95872.75;5068568;28;20089;-68
2022/11/14 08:15:28;;;;;;;6.82;5.15;;;;;;;7.28;100.00;95872.50;5068999;28;20382;-68
2022/11/14 08:18:00;;;;;;;5.95;5.22;;;;;;;7.43;100.00;95873.13;5069150;28;20040;-68
2022/11/14 08:20:26;;;;;;;5.65;5.05;;;;;;;7.49;100.00;95866.56;5068553;28;20028;-68
2022/11/14 08:22:53;;;;;;;5.63;4.70;;;;;;;7.60;100.00;95864.78;5067877;28;20040;-50
2022/11/14 08:25:19;;;;;;;9.02;5.97;;;;;;;7.66;100.00;95867.88;5067668;28;20032;-57
2022/11/14 08:27:44;;;;;;;9.07;7.97;;;;;;;7.77;100.00;95867.03;5059601;28;20086;-55
2022/11/14 08:30:10;;;;;;;9.05;8.15;;;;;;;7.87;100.00;95865.38;5063113;28;20029;-54
2022/11/14 08:32:36;;;;;;;10.07;8.60;;;;;;;7.99;100.00;95869.63;5068485;28;20411;-54
2022/11/14 08:35:01;;;;;;;10.85;8.48;;;;;;;8.03;100.00;95875.50;5067517;28;20111;-52
2022/11/14 08:37:27;;;;;;;11.73;10.52;;;;;;;8.13;100.00;95870.34;5065774;28;20401;-51
2022/11/14 08:39:52;;;;;;;11.40;10.25;;;;;;;8.16;100.00;95870.09;5064436;28;20126;-50
2022/11/14 08:42:17;;;;;;;12.05;10.85;;;;;;;8.25;100.00;95865.91;5065248;28;20045;-57
2022/11/14 08:44:43;;;;;;;10.85;9.48;;;;;;;8.29;100.00;95876.03;5065058;28;20039;-67
2022/11/14 08:47:08;;;;;;;14.95;11.20;;;;;;;8.37;100.00;95877.19;5066839;28;20029;-62
2022/11/14 08:49:33;;;;;;;9.77;7.32;;;;;;;8.48;100.00;95873.72;5066422;28;20690;-61
2022/11/14 08:51:59;;;;;;;8.40;7.20;;;;;;;8.56;100.00;95873.94;5067593;28;20119;-62
2022/11/14 08:54:24;;;;;;;9.15;7.80;;;;;;;8.61;100.00;95869.13;5067133;28;20037;-62
2022/11/14 08:56:49;;;;;;;9.85;8.95;;;;;;;8.72;100.00;95869.13;5067278;28;20486;-62
2022/11/14 08:59:15;;;;;;;9.40;8.50;;;;;;;8.84;100.00;95874.28;5067861;28;20115;-61
2022/11/14 09:01:41;;;;;;;13.45;10.35;;;;;;;8.88;100.00;95868.69;5067396;28;20116;-55
2022/11/14 09:04:07;;;;;;;16.77;14.95;;;;;;;9.06;100.00;95876.00;5067464;28;20575;-62
2022/11/14 09:06:33;;;;;;;15.10;13.35;;;;;;;9.27;100.00;95875.16;5065635;28;20027;-62
2022/11/14 09:08:58;;;;;;;9.15;6.53;;;;;;;9.32;100.00;95876.44;5067161;28;20437;-62
2022/11/14 09:11:24;;;;;;;10.98;8.13;;;;;;;9.31;100.00;95881.81;5067484;28;20032;-62
2022/11/14 09:13:49;;;;;;;13.75;9.35;;;;;;;9.37;100.00;95891.78;5067384;28;20125;-63
2022/11/14 09:16:14;;;;;;;14.70;9.57;;;;;;;9.48;100.00;95895.31;5067659;28;20032;-63
2022/11/14 09:18:40;;;;;;;8.77;7.35;;;;;;;9.54;100.00;95894.78;5066216;28;20043;-63
2022/11/14 09:21:07;;;;;;;8.18;5.63;;;;;;;9.63;100.00;95894.03;5063926;28;20033;-54
2022/11/14 09:23:33;;;;;;;8.35;5.35;;;;;;;9.74;99.22;95893.94;5065195;28;20044;-63
2022/11/14 09:26:06;;;;;;;6.43;4.72;;;;;;;9.81;98.77;95906.53;5064534;28;20035;-62
2022/11/14 09:28:32;;;;;;;8.85;5.35;;;;;;;9.97;98.94;95903.44;5065985;28;20029;-62
2022/11/14 09:31:02;;;;;;;6.82;5.72;;;;;;;10.09;99.22;95898.91;5066210;28;20937;-62
2022/11/14 09:33:28;;;;;;;7.13;4.85;;;;;;;10.21;97.46;95904.91;5069820;28;20033;-62
2022/11/14 09:36:00;;;;;;;11.70;6.78;;;;;;;10.26;97.13;95914.03;5069585;28;20031;-62
2022/11/14 09:38:26;;;;;;;5.75;4.82;;;;;;;10.29;96.87;95913.78;5069764;28;20020;-62
2022/11/14 09:41:01;;;;;;;7.75;3.67;;;;;;;10.32;96.09;95907.41;5068994;28;20036;-59
2022/11/14 09:43:38;;;;;;;4.23;3.83;;;;;;;10.49;94.73;95908.56;5069243;28;20067;-54
2022/11/14 09:46:15;;;;;;;3.65;3.35;;;;;;;10.50;93.78;95910.25;5068791;28;20040;-52
2022/11/14 09:48:42;;;;;;;4.38;3.88;;;;;;;10.62;91.70;95915.38;5068726;28;20044;-55
2022/11/14 09:51:21;;;;;;;5.30;3.58;;;;;;;10.75;90.72;95926.50;5068617;28;20126;-54
2022/11/14 09:54:02;;;;;;;4.63;2.92;;;;;;;10.80;87.78;95926.91;5068835;28;20147;-55
2022/11/14 09:56:27;;;;;;;3.83;3.53;;;;;;;10.81;87.99;95915.41;5068698;28;20058;-55
2022/11/14 09:58:55;;;;;;;3.78;3.38;;;;;;;10.99;85.54;95920.00;5070691;28;20086;-62
2022/11/14 10:01:31;;;;;;;6.32;3.65;;;;;;;11.09;85.39;95923.44;5069675;28;20040;-62
2022/11/14 10:03:56;;;;;;;5.43;3.60;;;;;;;11.14;84.29;95920.41;5070396;28;20032;-62
2022/11/14 10:06:48;;;;;;;15.00;4.53;;;;;;;11.33;85.08;95916.91;5070330;28;20379;-62
2022/11/14 10:09:38;;;;;;;4.07;3.70;;;;;;;11.43;82.52;95920.38;5070458;28;20064;-63
2022/11/14 10:12:13;;;;;;;4.40;3.55;;;;;;;11.51;82.06;95910.91;5069172;28;20124;-61
2022/11/14 10:15:07;;;;;;;4.13;3.75;;;;;;;11.46;83.45;95917.44;5070077;28;20036;-61
2022/11/14 10:17:40;;;;;;;4.10;3.70;;;;;;;11.48;81.81;95909.38;5068889;28;20035;-69
2022/11/14 10:20:40;;;;;;;3.42;3.13;;;;;;;11.44;80.59;95913.28;5069189;28;20041;-56
2022/11/14 10:23:20;;;;;;;4.10;3.28;;;;;;;11.34;81.79;95913.28;5070050;28;20028;-62
2022/11/14 10:26:15;;;;;;;3.83;3.00;;;;;;;11.36;82.59;95903.44;5069701;28;20236;-63
2022/11/14 10:28:52;;;;;;;6.53;5.93;;;;;;;11.28;84.19;95898.88;5064447;28;20045;-62
2022/11/14 10:31:46;;;;;;;3.85;3.45;;;;;;;11.44;82.11;95897.47;5064919;28;20032;-62
2022/11/14 10:34:25;;;;;;;4.03;3.50;;;;;;;11.58;79.07;95906.72;5070218;28;20039;-62
2022/11/14 10:37:03;;;;;;;4.15;2.70;;;;;;;11.56;81.24;95901.59;5068515;28;20098;-62
2022/11/14 10:39:48;;;;;;;3.42;3.13;;;;;;;11.76;80.61;95896.28;5069613;28;20025;-54
2022/11/14 10:42:22;;;;;;;6.07;3.35;;;;;;;11.69;80.67;95893.38;5068680;28;20379;-59
2022/11/14 10:45:01;;;;;;;5.05;3.08;;;;;;;11.81;81.09;95895.81;5070084;28;20391;-59
2022/11/14 10:47:34;;;;;;;3.60;3.30;;;;;;;11.87;79.89;95895.25;5068060;28;20021;-59
2022/11/14 10:50:10;;;;;;;3.80;3.20;;;;;;;11.95;79.11;95882.16;5068352;28;20037;-54
2022/11/14 10:52:41;;;;;;;3.72;3.38;;;;;;;12.00;79.49;95887.00;5066245;28;20491;-56
2022/11/14 10:55:14;;;;;;;4.45;3.50;;;;;;;12.15;78.46;95880.28;5069293;28;20120;-56
2022/11/14 10:57:41;;;;;;;3.75;3.42;;;;;;;12.13;77.77;95891.97;5069011;28;20359;-52
2022/11/14 11:00:15;;;;;;;3.67;3.38;;;;;;;12.16;77.08;95883.75;5061786;28;20036;-61
2022/11/14 11:02:53;;;;;;;3.72;2.83;;;;;;;12.20;78.00;95873.75;5066924;28;20032;-63
2022/11/14 11:05:24;;;;;;;6.93;3.78;;;;;;;12.51;75.17;95868.13;5068537;28;20032;-63
2022/11/14 11:13:41;;;;;;;4.90;4.35;;;;;;;12.73;76.60;95866.88;5067164;28;20093;-63
2022/11/14 11:16:10;;;;;;;4.40;4.10;;;;;;;12.82;76.47;95865.09;5064867;28;20028;-53
2022/11/14 11:18:36;;;;;;;4.45;3.25;;;;;;;12.85;76.91;95859.53;5068873;28;20517;-65
2022/11/14 11:21:08;;;;;;;5.57;3.63;;;;;;;12.88;77.07;95859.22;5067873;28;20029;-63
2022/11/14 11:23:35;;;;;;;3.80;3.50;;;;;;;12.95;77.78;95864.75;5069342;28;20037;-63
2022/11/14 11:26:07;;;;;;;7.15;3.42;;;;;;;13.00;76.23;95862.47;5068676;28;20076;-63
2022/11/14 11:28:35;;;;;;;3.40;3.15;;;;;;;13.04;75.43;95861.19;5065596;28;20036;-63
2022/11/14 11:31:06;;;;;;;9.60;3.88;;;;;;;13.16;75.71;95857.31;5067778;28;20127;-61
2022/11/14 11:33:34;;;;;;;6.47;4.80;;;;;;;13.31;74.08;95862.03;5068978;28;20119;-61